sensor_id;sensor_type;location;lat;lon;timestamp;P1;durP1;ratioP1;P2;durP2;ratioP2
76204;SDS011;64986;55.672;37.628;2023-05-07T00:01:42;3.42;;;2.42;;
76204;SDS011;64986;55.672;37.628;2023-05-07T00:04:07;3.85;;;2.03;;
76204;SDS011;64986;55.672;37.628;2023-05-07T00:06:33;4.25;;;2.00;;
76204;SDS011;64986;55.672;37.628;2023-05-07T00:08:59;2.92;;;2.20;;
76204;SDS011;64986;55.672;37.628;2023-05-07T00:11:26;2.58;;;1.75;;
76204;SDS011;64986;55.672;37.628;2023-05-07T00:13:52;3.38;;;1.85;;
76204;SDS011;64986;55.672;37.628;2023-05-07T00:16:18;3.00;;;2.15;;
76204;SDS011;64986;55.672;37.628;2023-05-07T00:18:44;2.15;;;1.30;;
76204;SDS011;64986;55.672;37.628;2023-05-07T00:21:10;4.47;;;2.47;;
76204;SDS011;64986;55.672;37.628;2023-05-07T00:23:35;2.95;;;1.80;;
76204;SDS011;64986;55.672;37.628;2023-05-07T00:26:01;3.85;;;1.98;;
76204;SDS011;64986;55.672;37.628;2023-05-07T00:28:27;3.95;;;2.47;;
76204;SDS011;64986;55.672;37.628;2023-05-07T00:30:52;4.80;;;2.13;;
76204;SDS011;64986;55.672;37.628;2023-05-07T00:33:18;3.38;;;2.00;;
76204;SDS011;64986;55.672;37.628;2023-05-07T00:35:45;3.28;;;1.83;;
76204;SDS011;64986;55.672;37.628;2023-05-07T00:38:10;3.35;;;2.20;;
76204;SDS011;64986;55.672;37.628;2023-05-07T00:40:36;3.85;;;2.70;;
76204;SDS011;64986;55.672;37.628;2023-05-07T00:43:02;4.30;;;1.63;;
76204;SDS011;64986;55.672;37.628;2023-05-07T00:45:27;1.80;;;1.42;;
76204;SDS011;64986;55.672;37.628;2023-05-07T00:47:54;4.85;;;2.33;;
76204;SDS011;64986;55.672;37.628;2023-05-07T00:50:24;3.10;;;1.88;;
76204;SDS011;64986;55.672;37.628;2023-05-07T00:52:51;3.80;;;2.40;;
76204;SDS011;64986;55.672;37.628;2023-05-07T00:55:17;3.72;;;2.60;;
76204;SDS011;64986;55.672;37.628;2023-05-07T00:57:43;5.13;;;1.70;;
76204;SDS011;64986;55.672;37.628;2023-05-07T01:00:10;3.50;;;1.67;;
76204;SDS011;64986;55.672;37.628;2023-05-07T01:02:40;1.73;;;1.52;;
76204;SDS011;64986;55.672;37.628;2023-05-07T01:05:07;2.97;;;2.05;;
76204;SDS011;64986;55.672;37.628;2023-05-07T01:07:34;7.70;;;2.75;;
76204;SDS011;64986;55.672;37.628;2023-05-07T01:10:02;3.70;;;2.20;;
76204;SDS011;64986;55.672;37.628;2023-05-07T01:12:29;4.70;;;2.75;;
76204;SDS011;64986;55.672;37.628;2023-05-07T01:14:56;3.55;;;2.13;;
76204;SDS011;64986;55.672;37.628;2023-05-07T01:17:23;4.22;;;2.08;;
76204;SDS011;64986;55.672;37.628;2023-05-07T01:19:48;2.90;;;1.95;;
76204;SDS011;64986;55.672;37.628;2023-05-07T01:22:15;3.13;;;2.03;;
76204;SDS011;64986;55.672;37.628;2023-05-07T01:24:45;3.55;;;2.40;;
76204;SDS011;64986;55.672;37.628;2023-05-07T01:27:11;2.97;;;1.98;;
76204;SDS011;64986;55.672;37.628;2023-05-07T01:29:36;2.97;;;2.15;;
76204;SDS011;64986;55.672;37.628;2023-05-07T01:32:04;3.15;;;1.65;;
76204;SDS011;64986;55.672;37.628;2023-05-07T01:34:31;3.83;;;2.67;;
76204;SDS011;64986;55.672;37.628;2023-05-07T01:36:59;2.97;;;2.05;;
76204;SDS011;64986;55.672;37.628;2023-05-07T01:39:27;2.92;;;1.95;;
76204;SDS011;64986;55.672;37.628;2023-05-07T01:41:57;4.40;;;2.65;;
76204;SDS011;64986;55.672;37.628;2023-05-07T01:44:24;3.63;;;2.13;;
76204;SDS011;64986;55.672;37.628;2023-05-07T01:46:51;3.35;;;1.90;;
76204;SDS011;64986;55.672;37.628;2023-05-07T01:49:17;5.35;;;1.45;;
76204;SDS011;64986;55.672;37.628;2023-05-07T01:51:43;4.55;;;2.40;;
76204;SDS011;64986;55.672;37.628;2023-05-07T01:54:09;2.72;;;2.03;;
76204;SDS011;64986;55.672;37.628;2023-05-07T01:56:35;2.80;;;1.70;;
76204;SDS011;64986;55.672;37.628;2023-05-07T01:59:00;5.80;;;2.72;;
76204;SDS011;64986;55.672;37.628;2023-05-07T02:01:27;4.05;;;2.58;;
76204;SDS011;64986;55.672;37.628;2023-05-07T02:03:52;3.13;;;2.20;;
76204;SDS011;64986;55.672;37.628;2023-05-07T02:06:18;4.13;;;2.70;;
76204;SDS011;64986;55.672;37.628;2023-05-07T02:08:44;4.63;;;2.72;;
76204;SDS011;64986;55.672;37.628;2023-05-07T02:11:11;4.32;;;3.00;;
76204;SDS011;64986;55.672;37.628;2023-05-07T02:13:36;3.00;;;2.00;;
76204;SDS011;64986;55.672;37.628;2023-05-07T02:16:02;4.30;;;3.00;;
76204;SDS011;64986;55.672;37.628;2023-05-07T02:18:28;6.05;;;2.58;;
76204;SDS011;64986;55.672;37.628;2023-05-07T02:20:53;6.00;;;2.63;;
76204;SDS011;64986;55.672;37.628;2023-05-07T02:23:19;3.92;;;2.25;;
76204;SDS011;64986;55.672;37.628;2023-05-07T02:25:44;5.32;;;2.97;;
76204;SDS011;64986;55.672;37.628;2023-05-07T02:28:11;4.10;;;2.25;;
76204;SDS011;64986;55.672;37.628;2023-05-07T02:30:37;4.18;;;2.20;;
76204;SDS011;64986;55.672;37.628;2023-05-07T02:33:03;3.75;;;2.28;;
76204;SDS011;64986;55.672;37.628;2023-05-07T02:35:28;3.53;;;2.22;;
76204;SDS011;64986;55.672;37.628;2023-05-07T02:37:54;6.07;;;1.55;;
76204;SDS011;64986;55.672;37.628;2023-05-07T02:40:19;3.00;;;2.00;;
76204;SDS011;64986;55.672;37.628;2023-05-07T02:42:45;2.92;;;1.80;;
76204;SDS011;64986;55.672;37.628;2023-05-07T02:45:11;8.05;;;2.45;;
76204;SDS011;64986;55.672;37.628;2023-05-07T02:47:36;5.00;;;2.95;;
76204;SDS011;64986;55.672;37.628;2023-05-07T02:50:02;3.88;;;2.20;;
76204;SDS011;64986;55.672;37.628;2023-05-07T02:52:28;3.75;;;2.25;;
76204;SDS011;64986;55.672;37.628;2023-05-07T02:54:54;6.50;;;2.45;;
76204;SDS011;64986;55.672;37.628;2023-05-07T02:57:20;6.00;;;3.30;;
76204;SDS011;64986;55.672;37.628;2023-05-07T02:59:45;4.47;;;3.10;;
76204;SDS011;64986;55.672;37.628;2023-05-07T03:02:11;4.47;;;2.85;;
76204;SDS011;64986;55.672;37.628;2023-05-07T03:04:37;5.70;;;3.38;;
76204;SDS011;64986;55.672;37.628;2023-05-07T03:07:04;3.55;;;2.00;;
76204;SDS011;64986;55.672;37.628;2023-05-07T03:09:29;4.10;;;2.40;;
76204;SDS011;64986;55.672;37.628;2023-05-07T03:11:55;7.20;;;3.72;;
76204;SDS011;64986;55.672;37.628;2023-05-07T03:14:21;6.55;;;3.65;;
76204;SDS011;64986;55.672;37.628;2023-05-07T03:16:47;5.65;;;3.70;;
76204;SDS011;64986;55.672;37.628;2023-05-07T03:19:12;5.78;;;3.40;;
76204;SDS011;64986;55.672;37.628;2023-05-07T03:21:38;6.88;;;3.17;;
76204;SDS011;64986;55.672;37.628;2023-05-07T03:24:03;6.35;;;3.78;;
76204;SDS011;64986;55.672;37.628;2023-05-07T03:26:29;7.03;;;3.67;;
76204;SDS011;64986;55.672;37.628;2023-05-07T03:28:55;3.97;;;2.70;;
76204;SDS011;64986;55.672;37.628;2023-05-07T03:31:20;5.30;;;3.17;;
76204;SDS011;64986;55.672;37.628;2023-05-07T03:33:56;4.65;;;2.80;;
76204;SDS011;64986;55.672;37.628;2023-05-07T03:36:22;5.85;;;3.08;;
76204;SDS011;64986;55.672;37.628;2023-05-07T03:38:48;4.07;;;2.50;;
76204;SDS011;64986;55.672;37.628;2023-05-07T03:41:15;4.53;;;2.85;;
76204;SDS011;64986;55.672;37.628;2023-05-07T03:43:40;4.40;;;2.83;;
76204;SDS011;64986;55.672;37.628;2023-05-07T03:46:06;5.32;;;2.85;;
76204;SDS011;64986;55.672;37.628;2023-05-07T03:48:32;3.70;;;2.40;;
76204;SDS011;64986;55.672;37.628;2023-05-07T03:50:58;3.65;;;2.17;;
76204;SDS011;64986;55.672;37.628;2023-05-07T03:53:23;4.90;;;2.58;;
76204;SDS011;64986;55.672;37.628;2023-05-07T03:55:49;5.10;;;2.65;;
76204;SDS011;64986;55.672;37.628;2023-05-07T03:58:15;6.97;;;2.67;;
76204;SDS011;64986;55.672;37.628;2023-05-07T04:00:41;5.10;;;2.35;;
76204;SDS011;64986;55.672;37.628;2023-05-07T04:03:07;4.13;;;2.38;;
76204;SDS011;64986;55.672;37.628;2023-05-07T04:05:32;6.22;;;2.63;;
76204;SDS011;64986;55.672;37.628;2023-05-07T04:07:58;2.60;;;1.95;;
76204;SDS011;64986;55.672;37.628;2023-05-07T04:10:24;3.22;;;1.55;;
76204;SDS011;64986;55.672;37.628;2023-05-07T04:12:50;3.13;;;1.90;;
76204;SDS011;64986;55.672;37.628;2023-05-07T04:15:15;4.05;;;2.22;;
76204;SDS011;64986;55.672;37.628;2023-05-07T04:17:41;5.47;;;2.50;;
76204;SDS011;64986;55.672;37.628;2023-05-07T04:20:08;4.43;;;2.67;;
76204;SDS011;64986;55.672;37.628;2023-05-07T04:22:35;4.95;;;2.10;;
76204;SDS011;64986;55.672;37.628;2023-05-07T04:25:01;3.58;;;1.88;;
76204;SDS011;64986;55.672;37.628;2023-05-07T04:27:27;4.35;;;1.85;;
76204;SDS011;64986;55.672;37.628;2023-05-07T04:29:53;2.35;;;1.80;;
76204;SDS011;64986;55.672;37.628;2023-05-07T04:32:21;4.32;;;1.92;;
76204;SDS011;64986;55.672;37.628;2023-05-07T04:34:50;3.17;;;1.95;;
76204;SDS011;64986;55.672;37.628;2023-05-07T04:37:15;3.42;;;1.63;;
76204;SDS011;64986;55.672;37.628;2023-05-07T04:39:41;2.25;;;1.83;;
76204;SDS011;64986;55.672;37.628;2023-05-07T04:42:06;2.38;;;1.50;;
76204;SDS011;64986;55.672;37.628;2023-05-07T04:44:34;3.08;;;1.83;;
76204;SDS011;64986;55.672;37.628;2023-05-07T04:47:00;2.72;;;1.60;;
76204;SDS011;64986;55.672;37.628;2023-05-07T04:49:26;2.97;;;2.22;;
76204;SDS011;64986;55.672;37.628;2023-05-07T04:51:51;1.60;;;1.48;;
76204;SDS011;64986;55.672;37.628;2023-05-07T04:54:17;2.28;;;1.35;;
76204;SDS011;64986;55.672;37.628;2023-05-07T04:56:43;2.00;;;1.52;;
76204;SDS011;64986;55.672;37.628;2023-05-07T04:59:08;3.60;;;1.92;;
76204;SDS011;64986;55.672;37.628;2023-05-07T05:01:34;3.95;;;1.77;;
76204;SDS011;64986;55.672;37.628;2023-05-07T05:03:59;2.92;;;1.85;;
76204;SDS011;64986;55.672;37.628;2023-05-07T05:06:25;4.25;;;1.85;;
76204;SDS011;64986;55.672;37.628;2023-05-07T05:08:51;2.63;;;1.73;;
76204;SDS011;64986;55.672;37.628;2023-05-07T05:11:16;3.42;;;1.58;;
76204;SDS011;64986;55.672;37.628;2023-05-07T05:13:42;3.25;;;1.88;;
76204;SDS011;64986;55.672;37.628;2023-05-07T05:16:07;3.95;;;1.70;;
76204;SDS011;64986;55.672;37.628;2023-05-07T05:18:33;1.23;;;1.00;;
76204;SDS011;64986;55.672;37.628;2023-05-07T05:20:58;1.60;;;1.27;;
76204;SDS011;64986;55.672;37.628;2023-05-07T05:23:24;3.17;;;1.80;;
76204;SDS011;64986;55.672;37.628;2023-05-07T05:25:49;6.10;;;1.63;;
76204;SDS011;64986;55.672;37.628;2023-05-07T05:28:15;2.13;;;1.35;;
76204;SDS011;64986;55.672;37.628;2023-05-07T05:30:40;2.22;;;1.30;;
76204;SDS011;64986;55.672;37.628;2023-05-07T05:33:06;2.83;;;1.38;;
76204;SDS011;64986;55.672;37.628;2023-05-07T05:35:31;1.73;;;1.35;;
76204;SDS011;64986;55.672;37.628;2023-05-07T05:37:57;2.85;;;1.50;;
76204;SDS011;64986;55.672;37.628;2023-05-07T05:40:22;3.90;;;1.48;;
76204;SDS011;64986;55.672;37.628;2023-05-07T05:42:48;2.10;;;1.40;;
76204;SDS011;64986;55.672;37.628;2023-05-07T05:45:13;2.92;;;1.00;;
76204;SDS011;64986;55.672;37.628;2023-05-07T05:47:39;1.98;;;1.58;;
76204;SDS011;64986;55.672;37.628;2023-05-07T05:50:05;4.05;;;1.67;;
76204;SDS011;64986;55.672;37.628;2023-05-07T05:52:32;2.67;;;1.60;;
76204;SDS011;64986;55.672;37.628;2023-05-07T05:54:57;3.47;;;1.88;;
76204;SDS011;64986;55.672;37.628;2023-05-07T05:57:23;2.85;;;1.35;;
76204;SDS011;64986;55.672;37.628;2023-05-07T05:59:48;2.42;;;1.30;;
76204;SDS011;64986;55.672;37.628;2023-05-07T06:02:14;1.67;;;1.45;;
76204;SDS011;64986;55.672;37.628;2023-05-07T06:04:40;4.65;;;1.10;;
76204;SDS011;64986;55.672;37.628;2023-05-07T06:07:05;1.77;;;1.40;;
76204;SDS011;64986;55.672;37.628;2023-05-07T06:09:31;2.88;;;1.48;;
76204;SDS011;64986;55.672;37.628;2023-05-07T06:11:56;2.38;;;1.20;;
76204;SDS011;64986;55.672;37.628;2023-05-07T06:14:22;3.45;;;1.55;;
76204;SDS011;64986;55.672;37.628;2023-05-07T06:16:47;1.83;;;1.20;;
76204;SDS011;64986;55.672;37.628;2023-05-07T06:19:13;3.53;;;1.30;;
76204;SDS011;64986;55.672;37.628;2023-05-07T06:21:39;2.22;;;1.15;;
76204;SDS011;64986;55.672;37.628;2023-05-07T06:24:05;1.90;;;1.70;;
76204;SDS011;64986;55.672;37.628;2023-05-07T06:26:31;1.52;;;1.00;;
76204;SDS011;64986;55.672;37.628;2023-05-07T06:28:57;2.20;;;1.65;;
76204;SDS011;64986;55.672;37.628;2023-05-07T06:31:22;2.22;;;1.45;;
76204;SDS011;64986;55.672;37.628;2023-05-07T06:33:48;1.65;;;1.05;;
76204;SDS011;64986;55.672;37.628;2023-05-07T06:36:14;3.35;;;1.10;;
76204;SDS011;64986;55.672;37.628;2023-05-07T06:38:40;2.05;;;1.13;;
76204;SDS011;64986;55.672;37.628;2023-05-07T06:41:06;1.70;;;1.20;;
76204;SDS011;64986;55.672;37.628;2023-05-07T06:43:32;2.13;;;1.30;;
76204;SDS011;64986;55.672;37.628;2023-05-07T06:45:58;2.05;;;1.42;;
76204;SDS011;64986;55.672;37.628;2023-05-07T06:48:24;4.32;;;1.20;;
76204;SDS011;64986;55.672;37.628;2023-05-07T06:50:50;5.22;;;1.60;;
76204;SDS011;64986;55.672;37.628;2023-05-07T06:53:15;1.20;;;0.90;;
76204;SDS011;64986;55.672;37.628;2023-05-07T06:55:41;4.10;;;1.40;;
76204;SDS011;64986;55.672;37.628;2023-05-07T06:58:06;3.08;;;1.58;;
76204;SDS011;64986;55.672;37.628;2023-05-07T07:00:32;2.15;;;1.00;;
76204;SDS011;64986;55.672;37.628;2023-05-07T07:02:58;2.40;;;1.20;;
76204;SDS011;64986;55.672;37.628;2023-05-07T07:05:24;2.60;;;1.30;;
76204;SDS011;64986;55.672;37.628;2023-05-07T07:07:50;4.03;;;1.48;;
76204;SDS011;64986;55.672;37.628;2023-05-07T07:10:21;3.47;;;1.10;;
76204;SDS011;64986;55.672;37.628;2023-05-07T07:12:48;3.10;;;1.23;;
76204;SDS011;64986;55.672;37.628;2023-05-07T07:15:14;2.95;;;1.40;;
76204;SDS011;64986;55.672;37.628;2023-05-07T07:17:40;1.95;;;1.17;;
76204;SDS011;64986;55.672;37.628;2023-05-07T07:20:05;2.10;;;1.20;;
76204;SDS011;64986;55.672;37.628;2023-05-07T07:22:31;3.60;;;1.67;;
76204;SDS011;64986;55.672;37.628;2023-05-07T07:24:57;1.48;;;1.17;;
76204;SDS011;64986;55.672;37.628;2023-05-07T07:27:22;3.10;;;1.42;;
76204;SDS011;64986;55.672;37.628;2023-05-07T07:29:48;2.15;;;1.13;;
76204;SDS011;64986;55.672;37.628;2023-05-07T07:32:14;2.47;;;1.40;;
76204;SDS011;64986;55.672;37.628;2023-05-07T07:34:39;3.72;;;1.42;;
76204;SDS011;64986;55.672;37.628;2023-05-07T07:37:05;5.00;;;1.45;;
76204;SDS011;64986;55.672;37.628;2023-05-07T07:39:34;2.03;;;1.30;;
76204;SDS011;64986;55.672;37.628;2023-05-07T07:42:00;3.25;;;1.30;;
76204;SDS011;64986;55.672;37.628;2023-05-07T07:44:26;1.63;;;0.98;;
76204;SDS011;64986;55.672;37.628;2023-05-07T07:46:53;2.28;;;1.33;;
76204;SDS011;64986;55.672;37.628;2023-05-07T07:49:18;4.70;;;2.10;;
76204;SDS011;64986;55.672;37.628;2023-05-07T07:51:44;2.17;;;1.13;;
76204;SDS011;64986;55.672;37.628;2023-05-07T07:54:09;1.40;;;1.00;;
76204;SDS011;64986;55.672;37.628;2023-05-07T07:56:35;3.13;;;1.25;;
76204;SDS011;64986;55.672;37.628;2023-05-07T07:59:00;2.55;;;1.40;;
76204;SDS011;64986;55.672;37.628;2023-05-07T08:01:26;2.35;;;1.17;;
76204;SDS011;64986;55.672;37.628;2023-05-07T08:03:52;3.03;;;1.58;;
76204;SDS011;64986;55.672;37.628;2023-05-07T08:06:18;1.58;;;0.95;;
76204;SDS011;64986;55.672;37.628;2023-05-07T08:08:43;2.72;;;1.13;;
76204;SDS011;64986;55.672;37.628;2023-05-07T08:11:09;3.72;;;1.20;;
76204;SDS011;64986;55.672;37.628;2023-05-07T08:13:35;6.65;;;1.90;;
76204;SDS011;64986;55.672;37.628;2023-05-07T08:16:03;1.98;;;1.10;;
76204;SDS011;64986;55.672;37.628;2023-05-07T08:18:29;0.90;;;0.70;;
76204;SDS011;64986;55.672;37.628;2023-05-07T08:20:54;3.78;;;1.73;;
76204;SDS011;64986;55.672;37.628;2023-05-07T08:23:20;0.90;;;0.80;;
76204;SDS011;64986;55.672;37.628;2023-05-07T08:25:46;3.67;;;1.40;;
76204;SDS011;64986;55.672;37.628;2023-05-07T08:28:12;1.85;;;0.98;;
76204;SDS011;64986;55.672;37.628;2023-05-07T08:30:37;1.20;;;1.05;;
76204;SDS011;64986;55.672;37.628;2023-05-07T08:33:03;1.20;;;0.68;;
76204;SDS011;64986;55.672;37.628;2023-05-07T08:35:29;1.33;;;0.73;;
76204;SDS011;64986;55.672;37.628;2023-05-07T08:37:54;1.23;;;1.05;;
76204;SDS011;64986;55.672;37.628;2023-05-07T08:40:24;4.53;;;1.10;;
76204;SDS011;64986;55.672;37.628;2023-05-07T08:42:52;3.55;;;1.35;;
76204;SDS011;64986;55.672;37.628;2023-05-07T08:45:19;3.70;;;1.02;;
76204;SDS011;64986;55.672;37.628;2023-05-07T08:47:55;1.27;;;0.93;;
76204;SDS011;64986;55.672;37.628;2023-05-07T08:50:26;1.02;;;0.65;;
76204;SDS011;64986;55.672;37.628;2023-05-07T08:52:52;2.65;;;1.27;;
76204;SDS011;64986;55.672;37.628;2023-05-07T08:55:18;1.58;;;0.90;;
76204;SDS011;64986;55.672;37.628;2023-05-07T08:57:45;6.60;;;1.27;;
76204;SDS011;64986;55.672;37.628;2023-05-07T09:00:11;3.42;;;1.17;;
76204;SDS011;64986;55.672;37.628;2023-05-07T09:02:37;4.30;;;0.98;;
76204;SDS011;64986;55.672;37.628;2023-05-07T09:05:03;1.23;;;0.90;;
76204;SDS011;64986;55.672;37.628;2023-05-07T09:07:29;1.70;;;0.90;;
76204;SDS011;64986;55.672;37.628;2023-05-07T09:09:55;2.13;;;0.98;;
76204;SDS011;64986;55.672;37.628;2023-05-07T09:12:22;5.05;;;2.08;;
76204;SDS011;64986;55.672;37.628;2023-05-07T09:14:48;3.65;;;1.25;;
76204;SDS011;64986;55.672;37.628;2023-05-07T09:17:17;1.30;;;0.75;;
76204;SDS011;64986;55.672;37.628;2023-05-07T09:19:43;3.38;;;1.17;;
76204;SDS011;64986;55.672;37.628;2023-05-07T09:22:10;3.30;;;1.00;;
76204;SDS011;64986;55.672;37.628;2023-05-07T09:24:36;5.43;;;1.60;;
76204;SDS011;64986;55.672;37.628;2023-05-07T09:27:04;6.95;;;1.70;;
76204;SDS011;64986;55.672;37.628;2023-05-07T09:29:30;5.90;;;1.40;;
76204;SDS011;64986;55.672;37.628;2023-05-07T09:32:04;3.05;;;1.50;;
76204;SDS011;64986;55.672;37.628;2023-05-07T09:34:31;4.85;;;1.60;;
76204;SDS011;64986;55.672;37.628;2023-05-07T09:37:03;1.65;;;1.10;;
76204;SDS011;64986;55.672;37.628;2023-05-07T09:39:42;0.80;;;0.80;;
76204;SDS011;64986;55.672;37.628;2023-05-07T09:42:12;1.20;;;0.90;;
76204;SDS011;64986;55.672;37.628;2023-05-07T09:44:40;5.13;;;1.40;;
76204;SDS011;64986;55.672;37.628;2023-05-07T09:47:06;1.08;;;0.70;;
76204;SDS011;64986;55.672;37.628;2023-05-07T09:49:35;2.20;;;0.95;;
76204;SDS011;64986;55.672;37.628;2023-05-07T09:52:03;1.83;;;0.88;;
76204;SDS011;64986;55.672;37.628;2023-05-07T09:54:32;2.83;;;1.35;;
76204;SDS011;64986;55.672;37.628;2023-05-07T09:56:58;1.30;;;0.80;;
76204;SDS011;64986;55.672;37.628;2023-05-07T09:59:27;5.03;;;1.33;;
76204;SDS011;64986;55.672;37.628;2023-05-07T10:01:56;3.85;;;1.25;;
76204;SDS011;64986;55.672;37.628;2023-05-07T10:04:23;3.60;;;1.10;;
76204;SDS011;64986;55.672;37.628;2023-05-07T10:06:51;4.35;;;1.02;;
76204;SDS011;64986;55.672;37.628;2023-05-07T10:09:17;3.67;;;1.10;;
76204;SDS011;64986;55.672;37.628;2023-05-07T10:11:43;2.38;;;1.35;;
76204;SDS011;64986;55.672;37.628;2023-05-07T10:14:09;1.38;;;0.90;;
76204;SDS011;64986;55.672;37.628;2023-05-07T10:16:36;1.75;;;1.23;;
76204;SDS011;64986;55.672;37.628;2023-05-07T10:19:06;1.92;;;1.17;;
76204;SDS011;64986;55.672;37.628;2023-05-07T10:21:38;1.73;;;0.98;;
76204;SDS011;64986;55.672;37.628;2023-05-07T10:24:10;2.85;;;1.00;;
76204;SDS011;64986;55.672;37.628;2023-05-07T10:26:44;2.47;;;1.00;;
76204;SDS011;64986;55.672;37.628;2023-05-07T10:30:00;1.63;;;0.90;;
76204;SDS011;64986;55.672;37.628;2023-05-07T10:35:04;1.08;;;0.95;;
76204;SDS011;64986;55.672;37.628;2023-05-07T10:37:39;1.27;;;0.98;;
76204;SDS011;64986;55.672;37.628;2023-05-07T10:40:06;1.88;;;1.25;;
76204;SDS011;64986;55.672;37.628;2023-05-07T10:42:32;1.35;;;0.88;;
76204;SDS011;64986;55.672;37.628;2023-05-07T10:44:58;1.27;;;0.90;;
76204;SDS011;64986;55.672;37.628;2023-05-07T10:47:37;1.50;;;0.90;;
76204;SDS011;64986;55.672;37.628;2023-05-07T10:50:47;2.42;;;1.10;;
76204;SDS011;64986;55.672;37.628;2023-05-07T10:55:48;2.10;;;1.30;;
76204;SDS011;64986;55.672;37.628;2023-05-07T11:00:46;3.65;;;1.15;;
76204;SDS011;64986;55.672;37.628;2023-05-07T11:03:12;3.13;;;1.17;;
76204;SDS011;64986;55.672;37.628;2023-05-07T11:05:39;6.05;;;1.95;;
76204;SDS011;64986;55.672;37.628;2023-05-07T11:08:06;1.40;;;0.93;;
76204;SDS011;64986;55.672;37.628;2023-05-07T11:16:24;0.98;;;0.82;;
76204;SDS011;64986;55.672;37.628;2023-05-07T11:18:54;5.40;;;1.17;;
76204;SDS011;64986;55.672;37.628;2023-05-07T11:21:33;1.38;;;1.00;;
76204;SDS011;64986;55.672;37.628;2023-05-07T11:24:06;1.40;;;0.98;;
76204;SDS011;64986;55.672;37.628;2023-05-07T11:26:46;1.25;;;1.10;;
76204;SDS011;64986;55.672;37.628;2023-05-07T11:29:16;1.25;;;1.00;;
76204;SDS011;64986;55.672;37.628;2023-05-07T11:31:44;0.68;;;0.68;;
76204;SDS011;64986;55.672;37.628;2023-05-07T11:34:14;1.65;;;1.00;;
76204;SDS011;64986;55.672;37.628;2023-05-07T11:36:45;2.10;;;1.48;;
76204;SDS011;64986;55.672;37.628;2023-05-07T11:39:33;1.67;;;1.13;;
76204;SDS011;64986;55.672;37.628;2023-05-07T11:41:59;2.25;;;1.10;;
76204;SDS011;64986;55.672;37.628;2023-05-07T11:44:25;3.65;;;1.25;;
76204;SDS011;64986;55.672;37.628;2023-05-07T11:47:03;1.92;;;1.00;;
76204;SDS011;64986;55.672;37.628;2023-05-07T11:49:29;5.25;;;1.58;;
76204;SDS011;64986;55.672;37.628;2023-05-07T11:51:55;3.50;;;1.50;;
76204;SDS011;64986;55.672;37.628;2023-05-07T11:54:21;2.58;;;1.13;;
76204;SDS011;64986;55.672;37.628;2023-05-07T11:56:47;3.20;;;1.02;;
76204;SDS011;64986;55.672;37.628;2023-05-07T11:59:16;1.48;;;1.00;;
76204;SDS011;64986;55.672;37.628;2023-05-07T12:01:46;5.38;;;1.63;;
76204;SDS011;64986;55.672;37.628;2023-05-07T12:04:12;2.33;;;1.20;;
76204;SDS011;64986;55.672;37.628;2023-05-07T12:06:38;2.13;;;1.23;;
76204;SDS011;64986;55.672;37.628;2023-05-07T12:09:04;3.58;;;1.30;;
76204;SDS011;64986;55.672;37.628;2023-05-07T12:11:32;1.95;;;1.15;;
76204;SDS011;64986;55.672;37.628;2023-05-07T12:13:57;3.33;;;1.50;;
76204;SDS011;64986;55.672;37.628;2023-05-07T12:16:23;4.22;;;1.48;;
76204;SDS011;64986;55.672;37.628;2023-05-07T12:18:49;1.20;;;1.02;;
76204;SDS011;64986;55.672;37.628;2023-05-07T12:21:15;3.80;;;1.00;;
76204;SDS011;64986;55.672;37.628;2023-05-07T12:23:42;1.33;;;1.00;;
76204;SDS011;64986;55.672;37.628;2023-05-07T12:26:08;2.50;;;1.17;;
76204;SDS011;64986;55.672;37.628;2023-05-07T12:28:36;3.63;;;1.35;;
76204;SDS011;64986;55.672;37.628;2023-05-07T12:31:06;2.25;;;1.00;;
76204;SDS011;64986;55.672;37.628;2023-05-07T12:33:33;1.90;;;1.40;;
76204;SDS011;64986;55.672;37.628;2023-05-07T12:36:02;3.78;;;1.33;;
76204;SDS011;64986;55.672;37.628;2023-05-07T12:38:34;3.33;;;2.10;;
76204;SDS011;64986;55.672;37.628;2023-05-07T12:41:00;3.35;;;1.30;;
76204;SDS011;64986;55.672;37.628;2023-05-07T12:43:27;3.10;;;1.17;;
76204;SDS011;64986;55.672;37.628;2023-05-07T12:45:54;3.55;;;1.33;;
76204;SDS011;64986;55.672;37.628;2023-05-07T12:48:22;3.75;;;1.50;;
76204;SDS011;64986;55.672;37.628;2023-05-07T12:50:49;2.35;;;1.20;;
76204;SDS011;64986;55.672;37.628;2023-05-07T12:53:25;3.33;;;1.40;;
76204;SDS011;64986;55.672;37.628;2023-05-07T12:55:53;1.08;;;0.90;;
76204;SDS011;64986;55.672;37.628;2023-05-07T12:58:30;0.85;;;0.80;;
76204;SDS011;64986;55.672;37.628;2023-05-07T13:00:59;2.30;;;1.05;;
76204;SDS011;64986;55.672;37.628;2023-05-07T13:03:47;2.58;;;1.55;;
76204;SDS011;64986;55.672;37.628;2023-05-07T13:06:35;2.45;;;1.50;;
76204;SDS011;64986;55.672;37.628;2023-05-07T13:09:21;1.70;;;1.02;;
76204;SDS011;64986;55.672;37.628;2023-05-07T13:12:07;2.38;;;1.13;;
76204;SDS011;64986;55.672;37.628;2023-05-07T13:14:44;4.70;;;1.80;;
76204;SDS011;64986;55.672;37.628;2023-05-07T13:17:09;1.85;;;1.20;;
76204;SDS011;64986;55.672;37.628;2023-05-07T13:19:35;2.97;;;1.38;;
76204;SDS011;64986;55.672;37.628;2023-05-07T13:22:02;2.65;;;1.30;;
76204;SDS011;64986;55.672;37.628;2023-05-07T13:24:28;1.92;;;1.02;;
76204;SDS011;64986;55.672;37.628;2023-05-07T13:26:53;1.83;;;1.20;;
76204;SDS011;64986;55.672;37.628;2023-05-07T13:29:19;1.85;;;1.10;;
76204;SDS011;64986;55.672;37.628;2023-05-07T13:31:50;1.55;;;1.10;;
76204;SDS011;64986;55.672;37.628;2023-05-07T13:34:16;2.40;;;1.25;;
76204;SDS011;64986;55.672;37.628;2023-05-07T13:36:41;2.90;;;1.40;;
76204;SDS011;64986;55.672;37.628;2023-05-07T13:39:09;2.58;;;1.33;;
76204;SDS011;64986;55.672;37.628;2023-05-07T13:41:35;3.47;;;1.17;;
76204;SDS011;64986;55.672;37.628;2023-05-07T13:44:00;1.70;;;1.25;;
76204;SDS011;64986;55.672;37.628;2023-05-07T13:46:26;4.28;;;1.40;;
76204;SDS011;64986;55.672;37.628;2023-05-07T13:48:52;2.40;;;1.10;;
76204;SDS011;64986;55.672;37.628;2023-05-07T13:51:17;4.25;;;1.08;;
76204;SDS011;64986;55.672;37.628;2023-05-07T13:53:43;2.67;;;1.27;;
76204;SDS011;64986;55.672;37.628;2023-05-07T13:56:08;1.83;;;1.13;;
76204;SDS011;64986;55.672;37.628;2023-05-07T13:58:34;2.80;;;1.17;;
76204;SDS011;64986;55.672;37.628;2023-05-07T14:01:01;2.67;;;1.10;;
76204;SDS011;64986;55.672;37.628;2023-05-07T14:05:02;1.10;;;1.00;;
76204;SDS011;64986;55.672;37.628;2023-05-07T14:07:28;2.55;;;1.70;;
76204;SDS011;64986;55.672;37.628;2023-05-07T14:09:54;2.42;;;1.08;;
76204;SDS011;64986;55.672;37.628;2023-05-07T14:12:19;1.83;;;1.40;;
76204;SDS011;64986;55.672;37.628;2023-05-07T14:16:03;2.42;;;0.88;;
76204;SDS011;64986;55.672;37.628;2023-05-07T14:18:29;1.85;;;1.33;;
76204;SDS011;64986;55.672;37.628;2023-05-07T14:20:54;4.15;;;1.70;;
76204;SDS011;64986;55.672;37.628;2023-05-07T14:23:20;1.40;;;1.05;;
76204;SDS011;64986;55.672;37.628;2023-05-07T14:25:50;3.58;;;1.42;;
76204;SDS011;64986;55.672;37.628;2023-05-07T14:28:16;1.38;;;1.10;;
76204;SDS011;64986;55.672;37.628;2023-05-07T14:30:41;1.55;;;0.68;;
76204;SDS011;64986;55.672;37.628;2023-05-07T14:33:06;2.28;;;1.20;;
76204;SDS011;64986;55.672;37.628;2023-05-07T14:35:32;3.88;;;1.15;;
76204;SDS011;64986;55.672;37.628;2023-05-07T14:37:57;2.13;;;1.42;;
76204;SDS011;64986;55.672;37.628;2023-05-07T14:40:22;1.85;;;1.23;;
76204;SDS011;64986;55.672;37.628;2023-05-07T14:42:48;1.85;;;1.15;;
76204;SDS011;64986;55.672;37.628;2023-05-07T14:45:13;1.58;;;1.10;;
76204;SDS011;64986;55.672;37.628;2023-05-07T14:47:39;3.67;;;1.40;;
76204;SDS011;64986;55.672;37.628;2023-05-07T14:50:04;2.83;;;1.13;;